sensor_id;sensor_type;location;lat;lon;timestamp;temperature;humidity
975;DHT22;6115;49.296;10.602;2023-11-21T00:02:58;7.50;83.80
975;DHT22;6115;49.296;10.602;2023-11-21T00:07:59;7.40;83.60
975;DHT22;6115;49.296;10.602;2023-11-21T00:13:00;7.40;84.40
975;DHT22;6115;49.296;10.602;2023-11-21T00:18:02;7.50;83.90
975;DHT22;6115;49.296;10.602;2023-11-21T00:23:03;7.40;83.80
975;DHT22;6115;49.296;10.602;2023-11-21T00:28:03;7.30;84.00
975;DHT22;6115;49.296;10.602;2023-11-21T00:33:04;7.30;84.20
975;DHT22;6115;49.296;10.602;2023-11-21T00:38:05;7.40;84.30
975;DHT22;6115;49.296;10.602;2023-11-21T00:43:05;7.40;84.30
975;DHT22;6115;49.296;10.602;2023-11-21T00:48:06;7.50;84.30
975;DHT22;6115;49.296;10.602;2023-11-21T00:53:08;7.50;84.00
975;DHT22;6115;49.296;10.602;2023-11-21T00:58:09;7.50;83.80
975;DHT22;6115;49.296;10.602;2023-11-21T01:03:10;7.50;83.60
975;DHT22;6115;49.296;10.602;2023-11-21T01:08:11;7.50;83.50
975;DHT22;6115;49.296;10.602;2023-11-21T01:13:12;7.50;83.40
975;DHT22;6115;49.296;10.602;2023-11-21T01:18:15;7.60;83.50
975;DHT22;6115;49.296;10.602;2023-11-21T01:23:16;7.60;83.40
975;DHT22;6115;49.296;10.602;2023-11-21T01:28:16;7.60;83.20
975;DHT22;6115;49.296;10.602;2023-11-21T01:33:17;7.50;83.30
975;DHT22;6115;49.296;10.602;2023-11-21T01:38:17;7.50;83.70
975;DHT22;6115;49.296;10.602;2023-11-21T01:43:18;7.50;83.80
975;DHT22;6115;49.296;10.602;2023-11-21T01:48:18;7.50;84.10
975;DHT22;6115;49.296;10.602;2023-11-21T01:53:19;7.60;84.30
975;DHT22;6115;49.296;10.602;2023-11-21T01:58:21;7.60;84.30
975;DHT22;6115;49.296;10.602;2023-11-21T02:03:22;7.70;84.30
975;DHT22;6115;49.296;10.602;2023-11-21T02:08:22;7.80;84.10
975;DHT22;6115;49.296;10.602;2023-11-21T02:13:23;7.80;84.00
975;DHT22;6115;49.296;10.602;2023-11-21T02:18:23;7.80;83.70
975;DHT22;6115;49.296;10.602;2023-11-21T02:23:24;7.80;83.50
975;DHT22;6115;49.296;10.602;2023-11-21T02:28:29;7.80;83.30
975;DHT22;6115;49.296;10.602;2023-11-21T02:33:29;7.90;83.30
975;DHT22;6115;49.296;10.602;2023-11-21T02:38:30;7.70;82.90
975;DHT22;6115;49.296;10.602;2023-11-21T02:43:31;7.80;83.00
975;DHT22;6115;49.296;10.602;2023-11-21T02:48:31;7.60;83.00
975;DHT22;6115;49.296;10.602;2023-11-21T02:53:32;7.70;83.30
975;DHT22;6115;49.296;10.602;2023-11-21T02:58:32;7.80;83.10
975;DHT22;6115;49.296;10.602;2023-11-21T03:03:33;7.70;82.90
975;DHT22;6115;49.296;10.602;2023-11-21T03:08:33;7.60;83.10
975;DHT22;6115;49.296;10.602;2023-11-21T03:13:34;7.60;83.30
975;DHT22;6115;49.296;10.602;2023-11-21T03:18:34;7.70;83.70
975;DHT22;6115;49.296;10.602;2023-11-21T03:23:36;7.70;83.60
975;DHT22;6115;49.296;10.602;2023-11-21T03:28:36;7.60;83.10
975;DHT22;6115;49.296;10.602;2023-11-21T03:33:37;7.70;83.40
975;DHT22;6115;49.296;10.602;2023-11-21T03:38:37;7.70;82.90
975;DHT22;6115;49.296;10.602;2023-11-21T03:43:38;7.80;82.90
975;DHT22;6115;49.296;10.602;2023-11-21T03:48:39;7.90;82.60
975;DHT22;6115;49.296;10.602;2023-11-21T03:53:39;7.90;82.60
975;DHT22;6115;49.296;10.602;2023-11-21T03:58:40;7.90;82.60
975;DHT22;6115;49.296;10.602;2023-11-21T04:03:41;7.90;82.60
975;DHT22;6115;49.296;10.602;2023-11-21T04:08:41;7.90;82.60
975;DHT22;6115;49.296;10.602;2023-11-21T04:13:42;7.90;82.60
975;DHT22;6115;49.296;10.602;2023-11-21T04:18:42;7.80;82.50
975;DHT22;6115;49.296;10.602;2023-11-21T04:23:43;7.80;82.50
975;DHT22;6115;49.296;10.602;2023-11-21T04:28:43;7.80;82.50
975;DHT22;6115;49.296;10.602;2023-11-21T04:33:45;7.80;82.50
975;DHT22;6115;49.296;10.602;2023-11-21T04:38:45;7.80;82.50
975;DHT22;6115;49.296;10.602;2023-11-21T04:43:46;7.80;82.50
975;DHT22;6115;49.296;10.602;2023-11-21T04:48:46;7.80;82.50
975;DHT22;6115;49.296;10.602;2023-11-21T04:53:47;7.80;82.50
975;DHT22;6115;49.296;10.602;2023-11-21T04:58:47;7.80;82.50
975;DHT22;6115;49.296;10.602;2023-11-21T05:03:48;7.90;82.60
975;DHT22;6115;49.296;10.602;2023-11-21T05:08:49;7.90;82.60
975;DHT22;6115;49.296;10.602;2023-11-21T05:13:50;7.90;82.50
975;DHT22;6115;49.296;10.602;2023-11-21T05:18:51;7.90;82.40
975;DHT22;6115;49.296;10.602;2023-11-21T05:23:51;7.80;82.40
975;DHT22;6115;49.296;10.602;2023-11-21T05:28:52;7.80;82.30
975;DHT22;6115;49.296;10.602;2023-11-21T05:33:52;7.80;82.40
975;DHT22;6115;49.296;10.602;2023-11-21T05:38:53;7.80;82.50
975;DHT22;6115;49.296;10.602;2023-11-21T05:43:54;7.80;82.50
975;DHT22;6115;49.296;10.602;2023-11-21T05:48:54;7.80;82.50
975;DHT22;6115;49.296;10.602;2023-11-21T05:53:55;7.80;82.50
975;DHT22;6115;49.296;10.602;2023-11-21T05:58:55;7.80;82.50
975;DHT22;6115;49.296;10.602;2023-11-21T06:03:56;7.90;82.60
975;DHT22;6115;49.296;10.602;2023-11-21T06:08:57;7.90;82.60
975;DHT22;6115;49.296;10.602;2023-11-21T06:13:57;7.90;82.60
975;DHT22;6115;49.296;10.602;2023-11-21T06:18:58;7.90;82.60
975;DHT22;6115;49.296;10.602;2023-11-21T06:23:59;7.90;82.60
975;DHT22;6115;49.296;10.602;2023-11-21T06:28:59;8.00;82.70
975;DHT22;6115;49.296;10.602;2023-11-21T06:34:01;8.00;82.70
975;DHT22;6115;49.296;10.602;2023-11-21T06:39:01;8.00;82.50
975;DHT22;6115;49.296;10.602;2023-11-21T06:44:02;7.90;82.30
975;DHT22;6115;49.296;10.602;2023-11-21T06:49:03;7.90;82.20
975;DHT22;6115;49.296;10.602;2023-11-21T06:54:03;7.70;82.20
975;DHT22;6115;49.296;10.602;2023-11-21T06:59:04;7.80;82.50
975;DHT22;6115;49.296;10.602;2023-11-21T07:04:06;7.90;82.60
975;DHT22;6115;49.296;10.602;2023-11-21T07:09:07;8.00;82.70
975;DHT22;6115;49.296;10.602;2023-11-21T07:14:08;8.10;82.70
975;DHT22;6115;49.296;10.602;2023-11-21T07:19:09;8.00;82.70
975;DHT22;6115;49.296;10.602;2023-11-21T07:24:10;8.00;83.40
975;DHT22;6115;49.296;10.602;2023-11-21T07:29:11;8.10;82.80
975;DHT22;6115;49.296;10.602;2023-11-21T07:34:13;8.00;82.70
975;DHT22;6115;49.296;10.602;2023-11-21T07:39:14;7.90;82.60
975;DHT22;6115;49.296;10.602;2023-11-21T07:44:17;8.10;82.80
975;DHT22;6115;49.296;10.602;2023-11-21T07:49:20;8.20;82.90
975;DHT22;6115;49.296;10.602;2023-11-21T07:54:21;8.30;82.50
975;DHT22;6115;49.296;10.602;2023-11-21T07:59:22;8.30;82.30
975;DHT22;6115;49.296;10.602;2023-11-21T08:04:22;8.30;82.20
975;DHT22;6115;49.296;10.602;2023-11-21T08:09:23;8.40;82.10
975;DHT22;6115;49.296;10.602;2023-11-21T08:14:24;8.50;81.90
975;DHT22;6115;49.296;10.602;2023-11-21T08:19:27;8.50;81.60
975;DHT22;6115;49.296;10.602;2023-11-21T08:24:28;8.50;81.60
975;DHT22;6115;49.296;10.602;2023-11-21T08:29:28;8.60;81.60
975;DHT22;6115;49.296;10.602;2023-11-21T08:34:29;8.60;81.50
975;DHT22;6115;49.296;10.602;2023-11-21T08:39:30;8.60;81.30
975;DHT22;6115;49.296;10.602;2023-11-21T08:44:30;8.70;81.40
975;DHT22;6115;49.296;10.602;2023-11-21T08:49:32;8.60;81.30
975;DHT22;6115;49.296;10.602;2023-11-21T08:54:32;8.60;81.30
975;DHT22;6115;49.296;10.602;2023-11-21T08:59:34;8.70;81.40
975;DHT22;6115;49.296;10.602;2023-11-21T09:04:35;8.80;81.50
975;DHT22;6115;49.296;10.602;2023-11-21T09:09:35;8.90;81.70
975;DHT22;6115;49.296;10.602;2023-11-21T09:14:36;9.00;81.40
975;DHT22;6115;49.296;10.602;2023-11-21T09:19:37;9.10;81.30
975;DHT22;6115;49.296;10.602;2023-11-21T09:24:38;9.30;81.30
975;DHT22;6115;49.296;10.602;2023-11-21T09:29:38;9.50;80.80
975;DHT22;6115;49.296;10.602;2023-11-21T09:34:39;9.40;80.40
975;DHT22;6115;49.296;10.602;2023-11-21T09:39:39;9.40;80.30
975;DHT22;6115;49.296;10.602;2023-11-21T09:44:51;9.40;80.00
975;DHT22;6115;49.296;10.602;2023-11-21T09:49:56;9.50;80.40
975;DHT22;6115;49.296;10.602;2023-11-21T09:55:02;9.60;79.40
975;DHT22;6115;49.296;10.602;2023-11-21T10:00:02;9.50;78.90
975;DHT22;6115;49.296;10.602;2023-11-21T10:05:06;9.50;78.20
975;DHT22;6115;49.296;10.602;2023-11-21T10:10:08;9.60;77.90
975;DHT22;6115;49.296;10.602;2023-11-21T10:15:11;9.60;77.50
975;DHT22;6115;49.296;10.602;2023-11-21T10:20:16;9.80;77.70
975;DHT22;6115;49.296;10.602;2023-11-21T10:25:17;9.90;77.00
975;DHT22;6115;49.296;10.602;2023-11-21T10:30:20;9.80;76.50
975;DHT22;6115;49.296;10.602;2023-11-21T10:35:21;9.70;76.00
975;DHT22;6115;49.296;10.602;2023-11-21T10:40:21;9.60;76.40
975;DHT22;6115;49.296;10.602;2023-11-21T10:45:23;9.50;76.50
975;DHT22;6115;49.296;10.602;2023-11-21T10:50:23;9.40;77.10
975;DHT22;6115;49.296;10.602;2023-11-21T10:55:26;9.50;77.80
975;DHT22;6115;49.296;10.602;2023-11-21T11:00:27;9.50;78.30
975;DHT22;6115;49.296;10.602;2023-11-21T11:05:30;9.50;78.60
975;DHT22;6115;49.296;10.602;2023-11-21T11:10:32;9.60;78.50
975;DHT22;6115;49.296;10.602;2023-11-21T11:15:33;9.70;78.50
975;DHT22;6115;49.296;10.602;2023-11-21T11:20:35;9.80;78.30
975;DHT22;6115;49.296;10.602;2023-11-21T11:26:30;9.90;77.90
975;DHT22;6115;49.296;10.602;2023-11-21T11:31:24;9.90;77.20
975;DHT22;6115;49.296;10.602;2023-11-21T11:36:36;9.90;76.90
975;DHT22;6115;49.296;10.602;2023-11-21T11:41:37;9.90;77.20
975;DHT22;6115;49.296;10.602;2023-11-21T11:51:42;10.20;74.10
975;DHT22;6115;49.296;10.602;2023-11-21T11:56:43;10.30;74.20
975;DHT22;6115;49.296;10.602;2023-11-21T12:01:46;10.50;73.40
975;DHT22;6115;49.296;10.602;2023-11-21T12:06:47;10.50;72.50
975;DHT22;6115;49.296;10.602;2023-11-21T12:11:49;10.60;72.20
975;DHT22;6115;49.296;10.602;2023-11-21T12:16:50;10.70;71.00
975;DHT22;6115;49.296;10.602;2023-11-21T12:21:52;10.70;70.60
975;DHT22;6115;49.296;10.602;2023-11-21T12:26:52;10.60;70.10
975;DHT22;6115;49.296;10.602;2023-11-21T12:31:53;10.60;70.10
975;DHT22;6115;49.296;10.602;2023-11-21T12:36:54;10.60;70.10
975;DHT22;6115;49.296;10.602;2023-11-21T12:41:55;10.60;69.70
975;DHT22;6115;49.296;10.602;2023-11-21T12:46:57;10.50;69.60
975;DHT22;6115;49.296;10.602;2023-11-21T12:51:57;10.50;69.60
975;DHT22;6115;49.296;10.602;2023-11-21T12:56:59;10.20;69.30
975;DHT22;6115;49.296;10.602;2023-11-21T13:02:00;10.00;70.10
975;DHT22;6115;49.296;10.602;2023-11-21T13:07:05;10.00;71.00
975;DHT22;6115;49.296;10.602;2023-11-21T13:12:15;10.00;71.20
975;DHT22;6115;49.296;10.602;2023-11-21T13:17:18;10.00;71.60
975;DHT22;6115;49.296;10.602;2023-11-21T13:22:19;10.10;72.00
975;DHT22;6115;49.296;10.602;2023-11-21T13:27:21;10.10;71.70
975;DHT22;6115;49.296;10.602;2023-11-21T13:32:21;10.10;71.60
975;DHT22;6115;49.296;10.602;2023-11-21T13:37:22;10.20;71.60
975;DHT22;6115;49.296;10.602;2023-11-21T13:42:25;10.30;72.20
975;DHT22;6115;49.296;10.602;2023-11-21T13:47:28;10.30;71.60
975;DHT22;6115;49.296;10.602;2023-11-21T13:52:31;10.20;70.60
975;DHT22;6115;49.296;10.602;2023-11-21T13:57:34;10.20;70.80
975;DHT22;6115;49.296;10.602;2023-11-21T14:02:34;10.30;71.30
975;DHT22;6115;49.296;10.602;2023-11-21T14:07:39;10.60;71.20
975;DHT22;6115;49.296;10.602;2023-11-21T14:12:48;10.80;69.90
975;DHT22;6115;49.296;10.602;2023-11-21T14:17:48;10.70;69.00
975;DHT22;6115;49.296;10.602;2023-11-21T14:22:49;10.70;67.20
975;DHT22;6115;49.296;10.602;2023-11-21T14:27:51;10.50;66.30
975;DHT22;6115;49.296;10.602;2023-11-21T14:32:51;10.50;66.90
975;DHT22;6115;49.296;10.602;2023-11-21T14:37:52;10.30;66.70
975;DHT22;6115;49.296;10.602;2023-11-21T14:42:53;10.00;67.60
975;DHT22;6115;49.296;10.602;2023-11-21T14:47:55;9.80;69.20
975;DHT22;6115;49.296;10.602;2023-11-21T14:53:14;9.70;69.60
975;DHT22;6115;49.296;10.602;2023-11-21T14:58:14;9.60;69.80
975;DHT22;6115;49.296;10.602;2023-11-21T15:03:20;9.60;69.80
975;DHT22;6115;49.296;10.602;2023-11-21T15:08:32;9.60;69.80
975;DHT22;6115;49.296;10.602;2023-11-21T15:13:33;9.50;69.70
975;DHT22;6115;49.296;10.602;2023-11-21T15:18:34;9.50;69.70
975;DHT22;6115;49.296;10.602;2023-11-21T15:23:35;9.40;70.20
975;DHT22;6115;49.296;10.602;2023-11-21T15:28:36;9.40;70.60
975;DHT22;6115;49.296;10.602;2023-11-21T15:33:37;9.30;70.80
975;DHT22;6115;49.296;10.602;2023-11-21T15:38:37;9.30;70.80
975;DHT22;6115;49.296;10.602;2023-11-21T15:43:38;9.20;70.90
975;DHT22;6115;49.296;10.602;2023-11-21T15:48:38;9.20;71.30
975;DHT22;6115;49.296;10.602;2023-11-21T15:53:44;9.20;71.40
975;DHT22;6115;49.296;10.602;2023-11-21T15:58:44;9.10;71.50
975;DHT22;6115;49.296;10.602;2023-11-21T16:03:47;8.90;71.70
975;DHT22;6115;49.296;10.602;2023-11-21T16:08:48;8.70;72.30
975;DHT22;6115;49.296;10.602;2023-11-21T16:13:49;8.70;73.00
975;DHT22;6115;49.296;10.602;2023-11-21T16:18:50;8.60;73.70
975;DHT22;6115;49.296;10.602;2023-11-21T16:23:51;8.60;73.70
975;DHT22;6115;49.296;10.602;2023-11-21T16:28:51;8.60;73.80
975;DHT22;6115;49.296;10.602;2023-11-21T16:33:52;8.60;73.80
975;DHT22;6115;49.296;10.602;2023-11-21T16:38:53;8.50;73.70
975;DHT22;6115;49.296;10.602;2023-11-21T16:43:54;8.50;74.10
975;DHT22;6115;49.296;10.602;2023-11-21T16:48:54;8.40;74.30
975;DHT22;6115;49.296;10.602;2023-11-21T16:53:55;8.40;74.50
975;DHT22;6115;49.296;10.602;2023-11-21T16:58:56;8.30;74.70
975;DHT22;6115;49.296;10.602;2023-11-21T17:03:56;8.30;75.10
975;DHT22;6115;49.296;10.602;2023-11-21T17:09:00;8.20;75.30
975;DHT22;6115;49.296;10.602;2023-11-21T17:14:06;8.20;75.50
975;DHT22;6115;49.296;10.602;2023-11-21T17:19:07;8.10;75.30
975;DHT22;6115;49.296;10.602;2023-11-21T17:24:07;8.00;75.50
975;DHT22;6115;49.296;10.602;2023-11-21T17:29:10;8.00;75.80
975;DHT22;6115;49.296;10.602;2023-11-21T17:34:11;8.00;76.00
975;DHT22;6115;49.296;10.602;2023-11-21T17:39:12;8.00;76.20
975;DHT22;6115;49.296;10.602;2023-11-21T17:44:13;8.00;76.40
975;DHT22;6115;49.296;10.602;2023-11-21T17:49:14;8.10;76.50
975;DHT22;6115;49.296;10.602;2023-11-21T17:54:14;8.10;76.70
975;DHT22;6115;49.296;10.602;2023-11-21T17:59:15;8.10;76.90
975;DHT22;6115;49.296;10.602;2023-11-21T18:04:16;8.10;76.80
975;DHT22;6115;49.296;10.602;2023-11-21T18:09:17;8.10;76.60
975;DHT22;6115;49.296;10.602;2023-11-21T18:14:19;8.20;76.50
975;DHT22;6115;49.296;10.602;2023-11-21T18:19:20;8.10;76.10
975;DHT22;6115;49.296;10.602;2023-11-21T18:24:20;8.10;76.00
975;DHT22;6115;49.296;10.602;2023-11-21T18:29:21;8.10;76.00
975;DHT22;6115;49.296;10.602;2023-11-21T18:34:21;8.20;76.00
975;DHT22;6115;49.296;10.602;2023-11-21T18:39:23;8.20;75.90
975;DHT22;6115;49.296;10.602;2023-11-21T18:44:25;8.20;76.10
975;DHT22;6115;49.296;10.602;2023-11-21T18:49:26;8.10;76.10
975;DHT22;6115;49.296;10.602;2023-11-21T18:54:26;8.10;76.00
975;DHT22;6115;49.296;10.602;2023-11-21T18:59:27;8.10;75.90
975;DHT22;6115;49.296;10.602;2023-11-21T19:04:27;8.10;75.70
975;DHT22;6115;49.296;10.602;2023-11-21T19:09:28;8.10;75.60
975;DHT22;6115;49.296;10.602;2023-11-21T19:14:30;8.00;75.50
975;DHT22;6115;49.296;10.602;2023-11-21T19:19:31;8.00;75.70
975;DHT22;6115;49.296;10.602;2023-11-21T19:24:31;8.00;75.70
975;DHT22;6115;49.296;10.602;2023-11-21T19:29:32;7.90;76.00
975;DHT22;6115;49.296;10.602;2023-11-21T19:34:34;7.90;76.20
975;DHT22;6115;49.296;10.602;2023-11-21T19:39:35;7.90;76.60
975;DHT22;6115;49.296;10.602;2023-11-21T19:44:36;7.90;76.40
975;DHT22;6115;49.296;10.602;2023-11-21T19:49:37;7.90;76.50
975;DHT22;6115;49.296;10.602;2023-11-21T19:54:38;7.90;76.60
975;DHT22;6115;49.296;10.602;2023-11-21T19:59:38;7.90;76.60
975;DHT22;6115;49.296;10.602;2023-11-21T20:04:43;7.90;76.60
975;DHT22;6115;49.296;10.602;2023-11-21T20:09:43;7.90;76.70
975;DHT22;6115;49.296;10.602;2023-11-21T20:14:44;7.90;76.70
975;DHT22;6115;49.296;10.602;2023-11-21T20:19:48;8.00;76.60
975;DHT22;6115;49.296;10.602;2023-11-21T20:24:48;8.00;76.50
975;DHT22;6115;49.296;10.602;2023-11-21T20:29:49;8.00;76.40
975;DHT22;6115;49.296;10.602;2023-11-21T20:34:50;8.00;76.40
975;DHT22;6115;49.296;10.602;2023-11-21T20:39:51;8.10;76.40
975;DHT22;6115;49.296;10.602;2023-11-21T20:44:52;8.00;76.30
975;DHT22;6115;49.296;10.602;2023-11-21T20:49:53;8.00;76.40
975;DHT22;6115;49.296;10.602;2023-11-21T20:54:58;8.00;76.30
975;DHT22;6115;49.296;10.602;2023-11-21T20:59:59;7.90;76.10
975;DHT22;6115;49.296;10.602;2023-11-21T21:05:00;7.70;74.70
975;DHT22;6115;49.296;10.602;2023-11-21T21:10:00;7.50;74.20
975;DHT22;6115;49.296;10.602;2023-11-21T21:15:01;7.40;74.40
975;DHT22;6115;49.296;10.602;2023-11-21T21:20:01;7.20;74.50
975;DHT22;6115;49.296;10.602;2023-11-21T21:25:02;7.20;74.40
975;DHT22;6115;49.296;10.602;2023-11-21T21:30:04;7.10;73.90
975;DHT22;6115;49.296;10.602;2023-11-21T21:35:06;6.90;73.90
975;DHT22;6115;49.296;10.602;2023-11-21T21:40:07;6.70;73.40
975;DHT22;6115;49.296;10.602;2023-11-21T21:45:09;6.60;73.50
975;DHT22;6115;49.296;10.602;2023-11-21T21:50:10;6.40;73.90
975;DHT22;6115;49.296;10.602;2023-11-21T21:55:11;6.30;74.10
975;DHT22;6115;49.296;10.602;2023-11-21T22:00:14;6.20;74.70
975;DHT22;6115;49.296;10.602;2023-11-21T22:05:15;6.10;74.80
975;DHT22;6115;49.296;10.602;2023-11-21T22:10:15;6.10;75.10
975;DHT22;6115;49.296;10.602;2023-11-21T22:15:16;5.90;74.60
975;DHT22;6115;49.296;10.602;2023-11-21T22:20:17;5.70;74.80
975;DHT22;6115;49.296;10.602;2023-11-21T22:25:20;5.70;75.30
975;DHT22;6115;49.296;10.602;2023-11-21T22:30:20;5.60;75.60
975;DHT22;6115;49.296;10.602;2023-11-21T22:35:25;5.60;75.70
975;DHT22;6115;49.296;10.602;2023-11-21T22:40:25;5.50;75.60
975;DHT22;6115;49.296;10.602;2023-11-21T22:45:26;5.50;75.60
975;DHT22;6115;49.296;10.602;2023-11-21T22:50:27;5.40;75.50
975;DHT22;6115;49.296;10.602;2023-11-21T22:55:28;5.40;75.50
975;DHT22;6115;49.296;10.602;2023-11-21T23:00:29;5.40;75.50
975;DHT22;6115;49.296;10.602;2023-11-21T23:05:30;5.30;75.50
975;DHT22;6115;49.296;10.602;2023-11-21T23:10:31;5.40;74.90
975;DHT22;6115;49.296;10.602;2023-11-21T23:15:31;5.30;75.00
975;DHT22;6115;49.296;10.602;2023-11-21T23:20:32;5.20;74.60
975;DHT22;6115;49.296;10.602;2023-11-21T23:25:32;5.10;74.30
975;DHT22;6115;49.296;10.602;2023-11-21T23:30:33;5.00;74.40
975;DHT22;6115;49.296;10.602;2023-11-21T23:35:34;5.10;74.50
975;DHT22;6115;49.296;10.602;2023-11-21T23:40:35;5.00;74.40
975;DHT22;6115;49.296;10.602;2023-11-21T23:45:36;4.90;73.70
975;DHT22;6115;49.296;10.602;2023-11-21T23:50:37;4.90;73.30
975;DHT22;6115;49.296;10.602;2023-11-21T23:55:37;4.90;73.30
